Time,TemperatureF,DewpointF,PressureIn,WindDirection,WindDirectionDegrees,WindSpeedMPH,WindSpeedGustMPH,Humidity,HourlyPrecipIn,Conditions,Clouds,dailyrainin,SoftwareType,DateUTC
2013-08-25 00:03:00,84.6,68.7,29.79,ESE,111,3.6,4.6,59,0.00,CLR,,0.00,WeatherDisplay:10.37,2013-08-25 05:03:00,
2013-08-25 00:08:00,84.4,68.5,29.78,East,88,3.3,4.6,59,0.00,CLR,,0.00,WeatherDisplay:10.37,2013-08-25 05:08:00,
2013-08-25 00:13:00,84.2,68.3,29.79,East,88,3.0,4.6,59,0.00,CLR,,0.00,WeatherDisplay:10.37,2013-08-25 05:13:00,
2013-08-25 00:19:00,84.2,68.3,29.79,East,88,2.9,4.6,59,0.00,CLR,,0.00,WeatherDisplay:10.37,2013-08-25 05:19:00,
2013-08-25 00:24:00,84.2,68.3,29.79,East,88,3.1,4.6,59,0.00,CLR,,0.00,WeatherDisplay:10.37,2013-08-25 05:24:00,
2013-08-25 00:29:00,84.0,68.6,29.79,East,88,3.0,4.6,60,0.00,CLR,,0.00,WeatherDisplay:10.37,2013-08-25 05:29:00,
2013-08-25 00:34:00,83.8,68.5,29.79,ESE,111,2.5,3.5,60,0.00,CLR,,0.00,WeatherDisplay:10.37,2013-08-25 05:34:00,
2013-08-25 00:39:00,83.7,68.3,29.80,SE,133,2.4,3.5,60,0.00,CLR,,0.00,WeatherDisplay:10.37,2013-08-25 05:39:00,
2013-08-25 00:44:00,83.7,68.3,29.79,East,88,2.7,4.6,60,0.00,CLR,,0.00,WeatherDisplay:10.37,2013-08-25 05:44:00,
2013-08-25 00:49:00,83.5,68.6,29.79,ESE,111,2.7,4.6,61,0.00,CLR,,0.00,WeatherDisplay:10.37,2013-08-25 05:49:00,
2013-08-25 00:54:00,83.3,68.4,29.79,East,88,2.5,3.5,61,0.00,CLR,,0.00,WeatherDisplay:10.37,2013-08-25 05:54:00,
2013-08-25 00:59:00,83.1,68.3,29.80,East,88,2.1,3.5,61,0.00,CLR,,0.00,WeatherDisplay:10.37,2013-08-25 05:59:00,
2013-08-25 01:04:00,83.1,68.3,29.80,ENE,65,2.0,3.5,61,0.00,CLR,,0.00,WeatherDisplay:10.37,2013-08-25 06:04:00,
2013-08-25 01:09:00,83.1,68.3,29.80,East,88,2.0,3.5,61,0.00,CLR,,0.00,WeatherDisplay:10.37,2013-08-25 06:09:00,
2013-08-25 01:14:00,83.1,68.7,29.79,East,88,2.2,3.5,62,0.00,CLR,,0.00,WeatherDisplay:10.37,2013-08-25 06:14:00,
2013-08-25 01:19:00,82.9,68.6,29.80,East,88,2.5,4.3,62,0.00,CLR,,0.00,WeatherDisplay:10.37,2013-08-25 06:19:00,
2013-08-25 01:24:00,82.8,67.9,29.80,ESE,111,2.6,3.5,61,0.00,CLR,,0.00,WeatherDisplay:10.37,2013-08-25 06:24:00,
2013-08-25 01:29:00,82.8,68.4,29.80,ESE,111,2.8,4.6,62,0.00,CLR,,0.00,WeatherDisplay:10.37,2013-08-25 06:29:00,
2013-08-25 01:34:00,82.6,68.2,29.80,ESE,111,2.9,4.6,62,0.00,CLR,,0.00,WeatherDisplay:10.37,2013-08-25 06:34:00,
2013-08-25 01:39:00,82.4,68.1,29.80,East,88,3.4,5.8,62,0.00,CLR,,0.00,WeatherDisplay:10.37,2013-08-25 06:39:00,
2013-08-25 01:44:00,82.0,67.7,29.80,East,88,2.5,3.5,62,0.00,CLR,,0.00,WeatherDisplay:10.37,2013-08-25 06:44:00,
2013-08-25 01:49:00,81.9,68.0,29.80,NE,43,2.4,3.5,63,0.00,CLR,,0.00,WeatherDisplay:10.37,2013-08-25 06:49:00,
2013-08-25 01:54:00,81.7,67.9,29.80,East,88,2.7,3.5,63,0.00,CLR,,0.00,WeatherDisplay:10.37,2013-08-25 06:54:00,
2013-08-25 01:59:00,81.7,68.3,29.80,East,88,2.3,3.5,64,0.00,CLR,,0.00,WeatherDisplay:10.37,2013-08-25 06:59:00,
2013-08-25 02:04:00,81.7,68.3,29.80,East,88,1.9,2.3,64,0.00,CLR,,0.00,WeatherDisplay:10.37,2013-08-25 07:04:00,
2013-08-25 02:09:00,81.5,68.1,29.80,ESE,111,1.3,2.3,64,0.00,CLR,,0.00,WeatherDisplay:10.37,2013-08-25 07:09:00,
2013-08-25 02:14:00,81.5,68.1,29.80,East,88,1.4,2.3,64,0.00,CLR,,0.00,WeatherDisplay:10.37,2013-08-25 07:14:00,
2013-08-25 02:19:00,81.5,68.1,29.80,SE,133,1.1,2.3,64,0.00,CLR,,0.00,WeatherDisplay:10.37,2013-08-25 07:19:00,
2013-08-25 02:24:00,81.7,68.3,29.80,East,88,0.9,2.3,64,0.00,CLR,,0.00,WeatherDisplay:10.37,2013-08-25 07:24:00,
2013-08-25 02:29:00,81.7,67.9,29.80,East,88,1.8,3.5,63,0.00,CLR,,0.00,WeatherDisplay:10.37,2013-08-25 07:29:00,
2013-08-25 02:34:00,81.5,67.7,29.80,ESE,111,2.5,3.5,63,0.00,CLR,,0.00,WeatherDisplay:10.37,2013-08-25 07:34:00,
2013-08-25 02:39:00,81.3,67.5,29.80,East,88,2.1,3.5,63,0.00,CLR,,0.00,WeatherDisplay:10.37,2013-08-25 07:39:00,
2013-08-25 02:44:00,81.1,67.8,29.80,East,88,2.6,3.5,64,0.00,CLR,,0.00,WeatherDisplay:10.37,2013-08-25 07:44:00,
2013-08-25 02:49:00,81.0,67.6,29.81,East,88,3.6,4.6,64,0.00,CLR,,0.00,WeatherDisplay:10.37,2013-08-25 07:49:00,
2013-08-25 02:54:00,80.8,67.5,29.81,ESE,111,3.4,4.6,64,0.00,CLR,,0.00,WeatherDisplay:10.37,2013-08-25 07:54:00,
2013-08-25 02:59:00,80.6,67.7,29.81,East,88,3.5,5.8,65,0.00,CLR,,0.00,WeatherDisplay:10.37,2013-08-25 07:59:00,
2013-08-25 03:04:00,80.4,67.6,29.81,ENE,65,2.1,4.6,65,0.00,CLR,,0.00,WeatherDisplay:10.37,2013-08-25 08:04:00,
2013-08-25 03:09:00,80.4,67.6,29.81,East,88,2.7,3.5,65,0.00,CLR,,0.00,WeatherDisplay:10.37,2013-08-25 08:09:00,
2013-08-25 03:14:00,80.2,67.4,29.81,SE,133,2.2,3.5,65,0.00,CLR,,0.00,WeatherDisplay:10.37,2013-08-25 08:14:00,
2013-08-25 03:19:00,80.2,67.4,29.81,ESE,111,2.7,4.6,65,0.00,CLR,,0.00,WeatherDisplay:10.37,2013-08-25 08:19:00,
2013-08-25 03:24:00,80.2,67.4,29.81,ESE,111,2.4,3.5,65,0.00,CLR,,0.00,WeatherDisplay:10.37,2013-08-25 08:24:00,
2013-08-25 03:29:00,80.2,67.4,29.81,ESE,111,2.5,3.5,65,0.00,CLR,,0.00,WeatherDisplay:10.37,2013-08-25 08:29:00,
2013-08-25 03:34:00,80.2,67.4,29.81,East,88,2.8,3.5,65,0.00,CLR,,0.00,WeatherDisplay:10.37,2013-08-25 08:34:00,
2013-08-25 03:39:00,80.2,67.4,29.81,ESE,111,2.2,4.6,65,0.00,CLR,,0.00,WeatherDisplay:10.37,2013-08-25 08:39:00,
2013-08-25 03:44:00,80.2,67.4,29.81,SE,133,2.8,3.5,65,0.00,CLR,,0.00,WeatherDisplay:10.37,2013-08-25 08:44:00,
2013-08-25 03:49:00,80.2,67.4,29.81,ESE,111,3.1,5.8,65,0.00,CLR,,0.00,WeatherDisplay:10.37,2013-08-25 08:49:00,
2013-08-25 03:54:00,80.2,67.4,29.81,ESE,111,3.8,6.9,65,0.00,CLR,,0.00,WeatherDisplay:10.37,2013-08-25 08:54:00,
2013-08-25 03:59:00,80.1,67.2,29.81,SSE,155,2.5,5.8,65,0.00,CLR,,0.00,WeatherDisplay:10.37,2013-08-25 08:59:00,
2013-08-25 04:04:00,80.1,67.2,29.81,SE,133,3.0,4.6,65,0.00,CLR,,0.00,WeatherDisplay:10.37,2013-08-25 09:04:00,
2013-08-25 04:09:00,80.1,67.2,29.82,East,88,2.8,4.6,65,0.00,CLR,,0.00,WeatherDisplay:10.37,2013-08-25 09:09:00,
2013-08-25 04:14:00,80.1,67.2,29.82,East,88,2.1,3.5,65,0.00,CLR,,0.00,WeatherDisplay:10.37,2013-08-25 09:14:00,
2013-08-25 04:19:00,80.1,67.2,29.82,ESE,111,1.9,3.5,65,0.00,CLR,,0.00,WeatherDisplay:10.37,2013-08-25 09:19:00,
2013-08-25 04:24:00,80.1,67.2,29.82,SE,133,1.6,3.5,65,0.00,CLR,,0.00,WeatherDisplay:10.37,2013-08-25 09:24:00,
2013-08-25 04:29:00,80.1,67.2,29.82,ESE,111,1.3,2.3,65,0.00,CLR,,0.00,WeatherDisplay:10.37,2013-08-25 09:29:00,
2013-08-25 04:35:00,80.1,67.2,29.82,ESE,111,1.8,2.3,65,0.00,CLR,,0.00,WeatherDisplay:10.37,2013-08-25 09:35:00,
2013-08-25 04:40:00,79.9,67.1,29.82,ESE,111,1.7,2.3,65,0.00,CLR,,0.00,WeatherDisplay:10.37,2013-08-25 09:40:00,
2013-08-25 04:45:00,79.9,67.1,29.82,ESE,111,0.0,1.1,65,0.00,CLR,,0.00,WeatherDisplay:10.37,2013-08-25 09:45:00,
2013-08-25 04:50:00,79.9,67.1,29.82,NE,43,0.1,1.1,65,0.00,CLR,,0.00,WeatherDisplay:10.37,2013-08-25 09:50:00,
2013-08-25 04:55:00,79.9,67.1,29.82,ENE,65,1.6,2.3,65,0.00,CLR,,0.00,WeatherDisplay:10.37,2013-08-25 09:55:00,
2013-08-25 05:00:00,79.7,67.3,29.83,NE,43,1.3,2.3,66,0.00,CLR,,0.00,WeatherDisplay:10.37,2013-08-25 10:00:00,
2013-08-25 05:05:00,79.5,67.2,29.83,ENE,65,1.7,2.3,66,0.00,CLR,,0.00,WeatherDisplay:10.37,2013-08-25 10:05:00,
2013-08-25 05:10:00,79.2,66.8,29.83,NE,43,1.7,2.3,66,0.00,CLR,,0.00,WeatherDisplay:10.37,2013-08-25 10:10:00,
2013-08-25 05:15:00,79.0,66.6,29.83,NE,43,0.0,0.0,66,0.00,CLR,,0.00,WeatherDisplay:10.37,2013-08-25 10:15:00,
2013-08-25 05:20:00,78.8,66.9,29.83,East,88,0.0,0.0,67,0.00,CLR,,0.00,WeatherDisplay:10.37,2013-08-25 10:20:00,
2013-08-25 05:25:00,78.8,66.9,29.83,ESE,111,0.1,1.1,67,0.00,CLR,,0.00,WeatherDisplay:10.37,2013-08-25 10:25:00,
2013-08-25 05:30:00,78.6,66.7,29.84,East,88,2.4,3.5,67,0.00,CLR,,0.00,WeatherDisplay:10.37,2013-08-25 10:30:00,
2013-08-25 05:35:00,78.4,67.0,29.84,SSE,155,0.7,2.3,68,0.00,CLR,,0.00,WeatherDisplay:10.37,2013-08-25 10:35:00,
2013-08-25 05:40:00,78.4,67.0,29.85,SSW,201,0.7,1.1,68,0.00,CLR,,0.00,WeatherDisplay:10.37,2013-08-25 10:40:00,
2013-08-25 05:45:00,78.3,66.8,29.84,ESE,111,1.2,2.3,68,0.00,CLR,,0.00,WeatherDisplay:10.37,2013-08-25 10:45:00,
2013-08-25 05:50:00,78.1,67.1,29.85,ENE,65,0.0,0.0,69,0.00,CLR,,0.00,WeatherDisplay:10.37,2013-08-25 10:50:00,
2013-08-25 05:55:00,78.1,67.1,29.85,NE,43,0.0,0.0,69,0.00,CLR,,0.00,WeatherDisplay:10.37,2013-08-25 10:55:00,
2013-08-25 06:00:00,78.1,67.1,29.85,NE,43,0.1,1.1,69,0.00,CLR,,0.00,WeatherDisplay:10.37,2013-08-25 11:00:00,
2013-08-25 06:05:00,77.7,66.7,29.85,North,358,1.7,2.3,69,0.00,CLR,,0.00,WeatherDisplay:10.37,2013-08-25 11:05:00,
2013-08-25 06:10:00,77.4,66.8,29.85,NNW,335,2.3,3.5,70,0.00,CLR,,0.00,WeatherDisplay:10.37,2013-08-25 11:10:00,
2013-08-25 06:15:00,77.0,66.9,29.85,North,358,2.2,3.5,71,0.00,CLR,,0.00,WeatherDisplay:10.37,2013-08-25 11:15:00,
2013-08-25 06:20:00,76.8,66.7,29.85,NW,313,1.6,2.3,71,0.00,CLR,,0.00,WeatherDisplay:10.37,2013-08-25 11:20:00,
2013-08-25 06:25:00,76.8,66.7,29.85,NW,313,1.8,2.3,71,0.00,CLR,,0.00,WeatherDisplay:10.37,2013-08-25 11:25:00,
2013-08-25 06:30:00,76.8,66.7,29.85,NW,313,1.8,2.3,71,0.00,CLR,,0.00,WeatherDisplay:10.37,2013-08-25 11:30:00,
2013-08-25 06:35:00,76.6,66.5,29.85,NE,43,1.8,2.3,71,0.00,CLR,,0.00,WeatherDisplay:10.37,2013-08-25 11:35:00,
2013-08-25 06:40:00,76.6,66.5,29.85,NE,43,1.1,2.3,71,0.00,CLR,,0.00,WeatherDisplay:10.37,2013-08-25 11:40:00,
2013-08-25 06:45:00,76.5,66.4,29.86,North,358,0.8,1.7,71,0.00,CLR,,0.00,WeatherDisplay:10.37,2013-08-25 11:45:00,
2013-08-25 06:50:00,76.5,66.4,29.86,NW,313,1.6,2.3,71,0.00,CLR,,0.00,WeatherDisplay:10.37,2013-08-25 11:50:00,
2013-08-25 06:55:00,76.3,66.6,29.86,NE,43,1.6,2.3,72,0.00,CLR,,0.00,WeatherDisplay:10.37,2013-08-25 11:55:00,
2013-08-25 07:00:00,76.1,66.8,29.86,NE,43,2.1,3.5,73,0.00,CLR,,0.00,WeatherDisplay:10.37,2013-08-25 12:00:00,
2013-08-25 07:05:00,75.9,66.6,29.87,East,88,2.3,3.5,73,0.00,CLR,,0.00,WeatherDisplay:10.37,2013-08-25 12:05:00,
2013-08-25 07:10:00,75.9,66.6,29.87,East,88,2.0,3.5,73,0.00,CLR,,0.00,WeatherDisplay:10.37,2013-08-25 12:10:00,
2013-08-25 07:15:00,75.9,66.6,29.87,ENE,65,2.1,3.5,73,0.00,CLR,,0.00,WeatherDisplay:10.37,2013-08-25 12:15:00,
2013-08-25 07:20:00,75.9,67.0,29.87,NE,43,2.4,3.5,74,0.00,CLR,,0.00,WeatherDisplay:10.37,2013-08-25 12:20:00,
2013-08-25 07:25:00,75.9,67.0,29.87,NE,43,2.0,3.5,74,0.00,CLR,,0.00,WeatherDisplay:10.37,2013-08-25 12:25:00,
2013-08-25 07:30:00,75.9,67.0,29.88,NE,43,2.5,3.5,74,0.00,CLR,,0.00,WeatherDisplay:10.37,2013-08-25 12:30:00,
2013-08-25 07:35:00,75.9,67.0,29.87,NE,43,1.8,2.3,74,0.00,CLR,,0.00,WeatherDisplay:10.37,2013-08-25 12:35:00,
2013-08-25 07:40:00,76.1,67.2,29.87,NE,43,2.3,3.5,74,0.00,CLR,,0.00,WeatherDisplay:10.37,2013-08-25 12:40:00,
2013-08-25 07:45:00,76.1,67.2,29.87,NE,43,1.9,3.5,74,0.00,CLR,,0.00,WeatherDisplay:10.37,2013-08-25 12:45:00,
2013-08-25 07:50:00,76.3,67.4,29.88,NE,43,1.7,2.3,74,0.00,CLR,,0.00,WeatherDisplay:10.37,2013-08-25 12:50:00,
2013-08-25 07:55:00,76.5,67.6,29.88,NE,43,1.2,2.3,74,0.00,CLR,,0.00,WeatherDisplay:10.37,2013-08-25 12:55:00,
2013-08-25 08:00:00,76.6,67.7,29.87,East,88,2.0,2.3,74,0.00,CLR,,0.00,WeatherDisplay:10.37,2013-08-25 13:00:00,
2013-08-25 08:05:00,76.8,67.9,29.87,NE,43,1.1,2.3,74,0.00,CLR,,0.00,WeatherDisplay:10.37,2013-08-25 13:05:00,
2013-08-25 08:10:00,77.0,68.1,29.87,SSW,201,1.6,2.3,74,0.00,CLR,,0.00,WeatherDisplay:10.37,2013-08-25 13:10:00,
2013-08-25 08:15:00,77.0,68.5,29.87,North,358,3.1,4.6,75,0.00,CLR,,0.00,WeatherDisplay:10.37,2013-08-25 13:15:00,
2013-08-25 08:20:00,77.2,68.6,29.87,East,88,2.9,5.2,75,0.00,CLR,,0.00,WeatherDisplay:10.37,2013-08-25 13:20:00,
2013-08-25 08:25:00,77.4,68.8,29.88,East,88,3.5,5.8,75,0.00,CLR,,0.00,WeatherDisplay:10.37,2013-08-25 13:25:00,
2013-08-25 08:30:00,77.7,69.2,29.88,NE,43,4.3,6.9,75,0.00,CLR,,0.00,WeatherDisplay:10.37,2013-08-25 13:30:00,
2013-08-25 08:35:00,78.1,69.5,29.88,NE,43,5.0,6.9,75,0.00,CLR,,0.00,WeatherDisplay:10.37,2013-08-25 13:35:00,
2013-08-25 08:40:00,78.3,69.3,29.88,ESE,111,3.6,8.1,74,0.00,CLR,,0.00,WeatherDisplay:10.37,2013-08-25 13:40:00,
2013-08-25 08:45:00,78.4,69.5,29.88,East,88,5.3,6.9,74,0.00,CLR,,0.00,WeatherDisplay:10.37,2013-08-25 13:45:00,
2013-08-25 08:50:00,78.8,69.4,29.87,East,88,3.7,6.3,73,0.00,CLR,,0.00,WeatherDisplay:10.37,2013-08-25 13:50:00,
2013-08-25 08:55:00,79.2,69.4,29.88,East,88,3.2,5.8,72,0.00,CLR,,0.00,WeatherDisplay:10.37,2013-08-25 13:55:00,
2013-08-25 09:00:00,79.3,69.5,29.87,East,88,2.7,5.8,72,0.00,CLR,,0.00,WeatherDisplay:10.37,2013-08-25 14:00:00,
2013-08-25 09:05:00,79.7,69.9,29.87,ESE,111,4.2,6.9,72,0.00,CLR,,0.00,WeatherDisplay:10.37,2013-08-25 14:05:00,
2013-08-25 09:10:00,80.1,69.8,29.87,East,88,3.4,4.6,71,0.00,CLR,,0.00,WeatherDisplay:10.37,2013-08-25 14:10:00,
2013-08-25 09:15:00,80.2,70.0,29.87,East,88,5.2,5.8,71,0.00,CLR,,0.00,WeatherDisplay:10.37,2013-08-25 14:15:00,
2013-08-25 09:20:00,80.6,70.3,29.87,SE,133,4.0,6.4,71,0.00,CLR,,0.00,WeatherDisplay:10.37,2013-08-25 14:20:00,
2013-08-25 09:25:00,80.8,70.1,29.87,ENE,65,2.7,5.5,70,0.00,CLR,,0.00,WeatherDisplay:10.37,2013-08-25 14:25:00,
2013-08-25 09:30:00,81.0,70.3,29.87,East,88,2.8,5.2,70,0.00,CLR,,0.00,WeatherDisplay:10.37,2013-08-25 14:30:00,
2013-08-25 09:35:00,81.1,70.4,29.87,ENE,65,2.6,5.4,70,0.00,CLR,,0.00,WeatherDisplay:10.37,2013-08-25 14:35:00,
2013-08-25 09:40:00,81.5,70.8,29.87,SSW,201,4.5,6.9,70,0.00,CLR,,0.00,WeatherDisplay:10.37,2013-08-25 14:40:00,
2013-08-25 09:45:00,81.9,70.7,29.87,ESE,111,4.5,6.9,69,0.00,CLR,,0.00,WeatherDisplay:10.37,2013-08-25 14:45:00,
2013-08-25 09:50:00,82.0,70.9,29.88,East,88,4.7,6.9,69,0.00,CLR,,0.00,WeatherDisplay:10.37,2013-08-25 14:50:00,
2013-08-25 09:55:00,82.2,71.0,29.88,ENE,65,4.3,6.8,69,0.00,CLR,,0.00,WeatherDisplay:10.37,2013-08-25 14:55:00,
2013-08-25 10:00:00,82.6,71.4,29.88,East,88,4.0,5.8,69,0.00,CLR,,0.00,WeatherDisplay:10.37,2013-08-25 15:00:00,
2013-08-25 10:05:00,82.8,71.1,29.88,SSE,155,2.1,4.1,68,0.00,CLR,,0.00,WeatherDisplay:10.37,2013-08-25 15:05:00,
2013-08-25 10:10:00,83.1,71.5,29.88,SE,133,3.0,5.8,68,0.00,CLR,,0.00,WeatherDisplay:10.37,2013-08-25 15:10:00,
2013-08-25 10:16:00,83.5,71.4,29.88,ENE,65,3.5,6.9,67,0.00,CLR,,0.00,WeatherDisplay:10.37,2013-08-25 15:16:00,
2013-08-25 10:21:00,83.8,71.7,29.88,East,88,3.5,5.8,67,0.00,CLR,,0.00,WeatherDisplay:10.37,2013-08-25 15:21:00,
2013-08-25 10:26:00,84.0,71.4,29.89,East,88,4.2,6.9,66,0.00,CLR,,0.00,WeatherDisplay:10.37,2013-08-25 15:26:00,
2013-08-25 10:31:00,84.4,71.3,29.89,East,88,3.5,8.1,65,0.00,CLR,,0.00,WeatherDisplay:10.37,2013-08-25 15:31:00,
2013-08-25 10:36:00,84.6,71.5,29.88,East,88,3.1,5.8,65,0.00,CLR,,0.00,WeatherDisplay:10.37,2013-08-25 15:36:00,
2013-08-25 10:41:00,84.9,71.8,29.88,ENE,65,5.2,6.9,65,0.00,CLR,,0.00,WeatherDisplay:10.37,2013-08-25 15:41:00,
2013-08-25 10:46:00,85.3,71.7,29.89,East,88,9.3,13.8,64,0.00,CLR,,0.00,WeatherDisplay:10.37,2013-08-25 15:46:00,
2013-08-25 10:51:00,85.6,71.6,29.89,East,88,7.5,11.5,63,0.00,CLR,,0.00,WeatherDisplay:10.37,2013-08-25 15:51:00,
2013-08-25 10:56:00,85.8,70.8,29.88,East,88,6.4,10.4,61,0.00,CLR,,0.00,WeatherDisplay:10.37,2013-08-25 15:56:00,
2013-08-25 11:01:00,86.4,70.8,29.88,East,88,8.4,11.5,60,0.00,CLR,,0.00,WeatherDisplay:10.37,2013-08-25 16:01:00,
2013-08-25 11:06:00,86.7,71.2,29.88,East,88,5.6,9.2,60,0.00,CLR,,0.00,WeatherDisplay:10.37,2013-08-25 16:06:00,
2013-08-25 11:11:00,86.9,70.3,29.88,ESE,111,7.8,11.5,58,0.00,CLR,,0.00,WeatherDisplay:10.37,2013-08-25 16:11:00,
2013-08-25 11:16:00,87.1,70.5,29.88,ENE,65,6.5,9.2,58,0.00,CLR,,0.00,WeatherDisplay:10.37,2013-08-25 16:16:00,
2013-08-25 11:21:00,87.6,70.5,29.88,SE,133,7.4,10.4,57,0.00,CLR,,0.00,WeatherDisplay:10.37,2013-08-25 16:21:00,
2013-08-25 11:26:00,87.8,70.7,29.88,NW,313,8.5,13.8,57,0.00,CLR,,0.00,WeatherDisplay:10.37,2013-08-25 16:26:00,
2013-08-25 11:31:00,88.3,70.7,29.88,ESE,111,7.1,11.5,56,0.00,CLR,,0.00,WeatherDisplay:10.37,2013-08-25 16:31:00,
2013-08-25 11:36:00,88.5,70.3,29.88,ESE,111,7.1,12.7,55,0.00,CLR,,0.00,WeatherDisplay:10.37,2013-08-25 16:36:00,
2013-08-25 11:41:00,88.9,69.0,29.88,East,88,9.5,12.7,52,0.00,CLR,,0.00,WeatherDisplay:10.37,2013-08-25 16:41:00,
2013-08-25 11:46:00,89.1,69.7,29.88,SE,133,8.0,12.7,53,0.00,CLR,,0.00,WeatherDisplay:10.37,2013-08-25 16:46:00,
2013-08-25 11:51:00,89.6,69.1,29.87,ESE,111,8.9,11.5,51,0.00,CLR,,0.00,WeatherDisplay:10.37,2013-08-25 16:51:00,
2013-08-25 11:56:00,89.6,69.1,29.87,East,88,6.0,10.9,51,0.00,CLR,,0.00,WeatherDisplay:10.37,2013-08-25 16:56:00,
2013-08-25 12:01:00,89.6,69.1,29.87,East,88,7.6,12.7,51,0.00,CLR,,0.00,WeatherDisplay:10.37,2013-08-25 17:01:00,
2013-08-25 12:06:00,89.6,69.1,29.87,East,88,8.0,12.7,51,0.00,CLR,,0.00,WeatherDisplay:10.37,2013-08-25 17:06:00,
2013-08-25 12:11:00,90.1,69.6,29.87,East,88,7.8,11.5,51,0.00,CLR,,0.00,WeatherDisplay:10.37,2013-08-25 17:11:00,
2013-08-25 12:16:00,90.3,69.7,29.86,East,88,6.5,11.5,51,0.00,CLR,,0.00,WeatherDisplay:10.37,2013-08-25 17:16:00,
2013-08-25 12:21:00,90.7,69.5,29.87,SE,133,11.1,17.3,50,0.00,CLR,,0.00,WeatherDisplay:10.37,2013-08-25 17:21:00,
2013-08-25 12:26:00,90.7,68.9,29.86,ESE,111,10.6,15.0,49,0.00,CLR,,0.00,WeatherDisplay:10.37,2013-08-25 17:26:00,
2013-08-25 12:31:00,90.7,68.3,29.86,East,88,8.1,13.8,48,0.00,CLR,,0.00,WeatherDisplay:10.37,2013-08-25 17:31:00,
2013-08-25 12:36:00,90.9,68.5,29.86,ESE,111,9.1,13.8,48,0.00,CLR,,0.00,WeatherDisplay:10.37,2013-08-25 17:36:00,
2013-08-25 12:41:00,91.0,68.0,29.86,ESE,111,8.0,16.1,47,0.00,CLR,,0.00,WeatherDisplay:10.37,2013-08-25 17:41:00,
2013-08-25 12:46:00,91.4,67.7,29.86,SE,133,9.4,13.8,46,0.00,CLR,,0.00,WeatherDisplay:10.37,2013-08-25 17:46:00,
2013-08-25 12:51:00,91.4,67.1,29.86,ESE,111,8.3,14.6,45,0.00,CLR,,0.00,WeatherDisplay:10.37,2013-08-25 17:51:00,
2013-08-25 12:56:00,91.4,67.1,29.85,East,88,7.2,10.4,45,0.00,CLR,,0.00,WeatherDisplay:10.37,2013-08-25 17:56:00,
2013-08-25 13:01:00,91.4,65.8,29.85,NE,43,10.6,16.1,43,0.00,CLR,,0.00,WeatherDisplay:10.37,2013-08-25 18:01:00,
2013-08-25 13:06:00,91.6,66.6,29.85,East,88,6.4,9.2,44,0.00,CLR,,0.00,WeatherDisplay:10.37,2013-08-25 18:06:00,
2013-08-25 13:11:00,91.8,66.7,29.85,East,88,8.7,12.7,44,0.00,CLR,,0.00,WeatherDisplay:10.37,2013-08-25 18:11:00,
2013-08-25 13:16:00,92.1,66.4,29.85,East,88,8.9,14.4,43,0.00,CLR,,0.00,WeatherDisplay:10.37,2013-08-25 18:16:00,
2013-08-25 13:21:00,92.3,67.2,29.85,ESE,111,8.9,13.8,44,0.00,CLR,,0.00,WeatherDisplay:10.37,2013-08-25 18:21:00,
2013-08-25 13:26:00,92.7,67.6,29.85,ENE,65,10.1,13.8,44,0.00,CLR,,0.00,WeatherDisplay:10.37,2013-08-25 18:26:00,
2013-08-25 13:31:00,92.8,68.4,29.85,ENE,65,8.6,15.0,45,0.00,CLR,,0.00,WeatherDisplay:10.37,2013-08-25 18:31:00,
2013-08-25 13:36:00,92.8,69.0,29.85,SE,133,8.4,12.7,46,0.00,CLR,,0.00,WeatherDisplay:10.37,2013-08-25 18:36:00,
2013-08-25 13:41:00,93.0,69.2,29.85,NE,43,8.2,12.7,46,0.00,CLR,,0.00,WeatherDisplay:10.37,2013-08-25 18:41:00,
2013-08-25 13:46:00,93.0,69.2,29.85,NE,43,6.1,11.5,46,0.00,CLR,,0.00,WeatherDisplay:10.37,2013-08-25 18:46:00,
2013-08-25 13:51:00,93.4,68.9,29.85,East,88,9.8,13.8,45,0.00,CLR,,0.00,WeatherDisplay:10.37,2013-08-25 18:51:00,
2013-08-25 13:56:00,93.4,68.2,29.85,SW,223,12.3,18.4,44,0.00,CLR,,0.00,WeatherDisplay:10.37,2013-08-25 18:56:00,
2013-08-25 14:01:00,93.2,68.0,29.84,ESE,111,10.7,13.8,44,0.00,SCT,,0.00,WeatherDisplay:10.37,2013-08-25 19:01:00,
2013-08-25 14:06:00,93.4,68.9,29.84,East,88,11.6,15.0,45,0.00,SCT,,0.00,WeatherDisplay:10.37,2013-08-25 19:06:00,
2013-08-25 14:11:00,93.4,68.9,29.84,ESE,111,7.8,12.7,45,0.00,SCT,,0.00,WeatherDisplay:10.37,2013-08-25 19:11:00,
2013-08-25 14:16:00,93.6,69.0,29.84,East,88,7.8,9.9,45,0.00,SCT,,0.00,WeatherDisplay:10.37,2013-08-25 19:16:00,
2013-08-25 14:21:00,93.9,68.7,29.84,East,88,10.0,15.3,44,0.00,SCT,,0.00,WeatherDisplay:10.37,2013-08-25 19:21:00,
2013-08-25 14:26:00,93.9,68.0,29.84,East,88,7.4,11.5,43,0.00,SCT,,0.00,WeatherDisplay:10.37,2013-08-25 19:26:00,
2013-08-25 14:31:00,94.1,68.9,29.84,East,88,8.1,15.0,44,0.00,SCT,,0.00,WeatherDisplay:10.37,2013-08-25 19:31:00,
2013-08-25 14:36:00,94.3,69.0,29.83,East,88,6.7,11.5,44,0.00,SCT,,0.00,WeatherDisplay:10.37,2013-08-25 19:36:00,
2013-08-25 14:41:00,94.3,68.3,29.83,ENE,65,10.5,18.4,43,0.00,SCT,,0.00,WeatherDisplay:10.37,2013-08-25 19:41:00,
2013-08-25 14:46:00,94.3,68.3,29.83,NE,43,8.8,16.1,43,0.00,SCT,,0.00,WeatherDisplay:10.37,2013-08-25 19:46:00,
2013-08-25 14:51:00,94.5,68.5,29.83,SE,133,6.6,12.7,43,0.00,SCT,,0.00,WeatherDisplay:10.37,2013-08-25 19:51:00,
2013-08-25 14:56:00,94.8,68.1,29.82,East,88,8.7,11.5,42,0.00,SCT,,0.00,WeatherDisplay:10.37,2013-08-25 19:56:00,
2013-08-25 15:01:00,94.8,68.1,29.82,East,88,10.3,16.1,42,0.00,SCT,,0.00,WeatherDisplay:10.37,2013-08-25 20:01:00,
2013-08-25 15:06:00,95.0,68.3,29.82,ENE,65,6.1,11.5,42,0.00,SCT,,0.00,WeatherDisplay:10.37,2013-08-25 20:06:00,
2013-08-25 15:11:00,95.2,68.5,29.82,ESE,111,4.5,10.4,42,0.00,SCT,,0.00,WeatherDisplay:10.37,2013-08-25 20:11:00,
2013-08-25 15:16:00,95.5,68.1,29.82,East,88,9.3,11.5,41,0.00,SCT,,0.00,WeatherDisplay:10.37,2013-08-25 20:16:00,
2013-08-25 15:21:00,95.9,68.4,29.81,East,88,8.6,12.7,41,0.00,SCT,,0.00,WeatherDisplay:10.37,2013-08-25 20:21:00,
2013-08-25 15:26:00,95.9,68.4,29.81,ESE,111,8.4,12.7,41,0.00,SCT,,0.00,WeatherDisplay:10.37,2013-08-25 20:26:00,
2013-08-25 15:31:00,96.1,67.9,29.81,ESE,111,7.3,11.2,40,0.00,SCT,,0.00,WeatherDisplay:10.37,2013-08-25 20:31:00,
2013-08-25 15:36:00,96.3,68.7,29.81,ESE,111,3.8,11.5,41,0.00,SCT,,0.00,WeatherDisplay:10.37,2013-08-25 20:36:00,
2013-08-25 15:41:00,96.4,68.2,29.80,East,88,7.0,15.0,40,0.00,SCT,,0.00,WeatherDisplay:10.37,2013-08-25 20:41:00,
2013-08-25 15:46:00,96.4,68.2,29.80,ENE,65,10.1,13.8,40,0.00,SCT,,0.00,WeatherDisplay:10.37,2013-08-25 20:46:00,
2013-08-25 15:51:00,96.4,68.2,29.80,ENE,65,7.2,10.1,40,0.00,SCT,,0.00,WeatherDisplay:10.37,2013-08-25 20:51:00,
2013-08-25 15:57:00,96.8,68.5,29.80,East,88,9.6,13.8,40,0.00,SCT,,0.00,WeatherDisplay:10.37,2013-08-25 20:57:00,
2013-08-25 16:02:00,96.8,67.8,29.80,ESE,111,10.0,11.5,39,0.00,SCT,,0.00,WeatherDisplay:10.37,2013-08-25 21:02:00,
2013-08-25 16:07:00,96.8,68.5,29.80,SE,133,5.0,10.4,40,0.00,SCT,,0.00,WeatherDisplay:10.37,2013-08-25 21:07:00,
2013-08-25 16:12:00,97.2,68.8,29.80,WSW,245,3.2,9.9,40,0.00,SCT,,0.00,WeatherDisplay:10.37,2013-08-25 21:12:00,
2013-08-25 16:17:00,97.2,68.8,29.80,East,88,5.4,6.9,40,0.00,SCT,,0.00,WeatherDisplay:10.37,2013-08-25 21:17:00,
2013-08-25 16:22:00,97.3,67.5,29.80,NE,43,6.5,12.7,38,0.00,SCT,,0.00,WeatherDisplay:10.37,2013-08-25 21:22:00,
2013-08-25 16:27:00,97.5,67.6,29.79,East,88,5.0,8.1,38,0.00,SCT,,0.00,WeatherDisplay:10.37,2013-08-25 21:27:00,
2013-08-25 16:32:00,97.9,68.0,29.79,ESE,111,5.6,11.5,38,0.00,SCT,,0.00,WeatherDisplay:10.37,2013-08-25 21:32:00,
2013-08-25 16:37:00,97.5,67.6,29.79,ESE,111,7.2,11.5,38,0.00,SCT,,0.00,WeatherDisplay:10.37,2013-08-25 21:37:00,
2013-08-25 16:42:00,97.5,67.6,29.79,East,88,7.4,12.7,38,0.00,SCT,,0.00,WeatherDisplay:10.37,2013-08-25 21:42:00,
2013-08-25 16:47:00,97.5,67.6,29.79,East,88,4.6,6.9,38,0.00,SCT,,0.00,WeatherDisplay:10.37,2013-08-25 21:47:00,
2013-08-25 16:52:00,97.7,67.8,29.79,ESE,111,4.9,9.2,38,0.00,SCT,,0.00,WeatherDisplay:10.37,2013-08-25 21:52:00,
2013-08-25 16:57:00,98.1,68.1,29.79,East,88,7.4,12.7,38,0.00,SCT,,0.00,WeatherDisplay:10.37,2013-08-25 21:57:00,
2013-08-25 17:02:00,98.1,66.6,29.79,NE,43,8.1,11.5,36,0.00,SCT,,0.00,WeatherDisplay:10.37,2013-08-25 22:02:00,
2013-08-25 17:07:00,97.5,66.1,29.79,ESE,111,6.9,10.4,36,0.00,SCT,,0.00,WeatherDisplay:10.37,2013-08-25 22:07:00,
2013-08-25 17:12:00,97.2,67.3,29.79,ENE,65,7.9,12.7,38,0.00,SCT,,0.00,WeatherDisplay:10.37,2013-08-25 22:12:00,
2013-08-25 17:17:00,97.5,66.9,29.79,ESE,111,10.5,13.8,37,0.00,SCT,,0.00,WeatherDisplay:10.37,2013-08-25 22:17:00,
2013-08-25 17:22:00,97.0,66.4,29.79,SE,133,7.4,9.2,37,0.00,SCT,,0.00,WeatherDisplay:10.37,2013-08-25 22:22:00,
2013-08-25 17:27:00,96.6,66.1,29.79,ESE,111,6.9,9.2,37,0.00,SCT,,0.00,WeatherDisplay:10.37,2013-08-25 22:27:00,
2013-08-25 17:32:00,96.4,67.4,29.79,SE,133,8.9,11.8,39,0.00,SCT,,0.00,WeatherDisplay:10.37,2013-08-25 22:32:00,
2013-08-25 17:37:00,97.0,67.2,29.79,East,88,7.5,11.5,38,0.00,SCT,,0.00,WeatherDisplay:10.37,2013-08-25 22:37:00,
2013-08-25 17:42:00,97.0,67.2,29.79,East,88,8.6,10.4,38,0.00,SCT,,0.00,WeatherDisplay:10.37,2013-08-25 22:42:00,
2013-08-25 17:47:00,96.8,67.0,29.79,ENE,65,6.6,12.7,38,0.00,SCT,,0.00,WeatherDisplay:10.37,2013-08-25 22:47:00,
2013-08-25 17:52:00,97.0,67.2,29.78,SE,133,8.6,11.5,38,0.00,SCT,,0.00,WeatherDisplay:10.37,2013-08-25 22:52:00,
2013-08-25 17:57:00,96.8,67.0,29.79,ESE,111,7.4,9.2,38,0.00,SCT,,0.00,WeatherDisplay:10.37,2013-08-25 22:57:00,
2013-08-25 18:02:00,97.2,65.8,29.79,ESE,111,6.7,10.4,36,0.00,SCT,,0.00,WeatherDisplay:10.37,2013-08-25 23:02:00,
2013-08-25 18:07:00,97.2,67.3,29.79,SSE,155,6.2,11.5,38,0.00,SCT,,0.00,WeatherDisplay:10.37,2013-08-25 23:07:00,
2013-08-25 18:12:00,97.2,65.8,29.79,NE,43,6.6,10.4,36,0.00,SCT,,0.00,WeatherDisplay:10.37,2013-08-25 23:12:00,
2013-08-25 18:17:00,97.2,66.6,29.78,NE,43,6.5,10.1,37,0.00,SCT,,0.00,WeatherDisplay:10.37,2013-08-25 23:17:00,
2013-08-25 18:22:00,97.0,65.6,29.78,ESE,111,5.7,9.2,36,0.00,SCT,,0.00,WeatherDisplay:10.37,2013-08-25 23:22:00,
2013-08-25 18:27:00,96.8,67.0,29.78,ESE,111,8.8,13.8,38,0.00,SCT,,0.00,WeatherDisplay:10.37,2013-08-25 23:27:00,
2013-08-25 18:32:00,96.8,67.0,29.78,NE,43,8.2,12.7,38,0.00,SCT,,0.00,WeatherDisplay:10.37,2013-08-25 23:32:00,
2013-08-25 18:37:00,96.4,66.7,29.78,ESE,111,9.0,11.5,38,0.00,SCT,,0.00,WeatherDisplay:10.37,2013-08-25 23:37:00,
2013-08-25 18:42:00,96.4,66.7,29.78,East,88,8.8,11.5,38,0.00,SCT,,0.00,WeatherDisplay:10.37,2013-08-25 23:42:00,
2013-08-25 18:47:00,96.4,66.7,29.78,East,88,6.7,11.5,38,0.00,SCT,,0.00,WeatherDisplay:10.37,2013-08-25 23:47:00,
2013-08-25 18:52:00,96.1,66.4,29.78,East,88,7.8,13.8,38,0.00,SCT,,0.00,WeatherDisplay:10.37,2013-08-25 23:52:00,
2013-08-25 18:57:00,95.4,65.7,29.79,East,88,8.1,11.5,38,0.00,SCT,,0.00,WeatherDisplay:10.37,2013-08-25 23:57:00,
2013-08-25 19:02:00,94.8,65.3,29.78,ESE,111,5.3,9.2,38,0.00,CLR,,0.00,WeatherDisplay:10.37,2013-08-26 00:02:00,
2013-08-25 19:07:00,94.5,64.9,29.78,East,88,7.0,9.5,38,0.00,CLR,,0.00,WeatherDisplay:10.37,2013-08-26 00:07:00,
2013-08-25 19:12:00,94.3,64.8,29.78,East,88,6.0,9.2,38,0.00,CLR,,0.00,WeatherDisplay:10.37,2013-08-26 00:12:00,
2013-08-25 19:17:00,94.3,65.5,29.78,East,88,5.6,10.4,39,0.00,CLR,,0.00,WeatherDisplay:10.37,2013-08-26 00:17:00,
2013-08-25 19:22:00,94.1,65.4,29.79,SE,133,7.0,10.4,39,0.00,CLR,,0.00,WeatherDisplay:10.37,2013-08-26 00:22:00,
2013-08-25 19:27:00,93.9,65.2,29.78,East,88,6.5,9.2,39,0.00,CLR,,0.00,WeatherDisplay:10.37,2013-08-26 00:27:00,
2013-08-25 19:32:00,93.4,65.4,29.79,East,88,6.9,9.2,40,0.00,CLR,,0.00,WeatherDisplay:10.37,2013-08-26 00:32:00,
2013-08-25 19:37:00,93.2,65.3,29.79,ESE,111,4.7,8.1,40,0.00,CLR,,0.00,WeatherDisplay:10.37,2013-08-26 00:37:00,
2013-08-25 19:42:00,92.8,65.7,29.79,East,88,4.4,6.9,41,0.00,CLR,,0.00,WeatherDisplay:10.37,2013-08-26 00:42:00,
2013-08-25 19:47:00,92.5,65.4,29.79,ESE,111,4.7,9.2,41,0.00,CLR,,0.00,WeatherDisplay:10.37,2013-08-26 00:47:00,
2013-08-25 19:52:00,92.1,65.0,29.79,ESE,111,6.1,8.1,41,0.00,CLR,,0.00,WeatherDisplay:10.37,2013-08-26 00:52:00,
2013-08-25 19:57:00,91.9,64.9,29.79,ESE,111,4.7,6.2,41,0.00,CLR,,0.00,WeatherDisplay:10.37,2013-08-26 00:57:00,
2013-08-25 20:02:00,91.8,65.4,29.80,East,88,4.4,5.8,42,0.00,CLR,,0.00,WeatherDisplay:10.37,2013-08-26 01:02:00,
2013-08-25 20:07:00,91.6,65.2,29.79,ESE,111,4.1,5.8,42,0.00,CLR,,0.00,WeatherDisplay:10.37,2013-08-26 01:07:00,
2013-08-25 20:13:00,91.2,65.6,29.79,East,88,3.1,5.8,43,0.00,CLR,,0.00,WeatherDisplay:10.37,2013-08-26 01:13:00,
2013-08-25 20:18:00,91.0,65.4,29.80,East,88,2.8,4.6,43,0.00,CLR,,0.00,WeatherDisplay:10.37,2013-08-26 01:18:00,
2013-08-25 20:23:00,91.0,65.4,29.80,East,88,3.2,4.6,43,0.00,CLR,,0.00,WeatherDisplay:10.37,2013-08-26 01:23:00,
2013-08-25 20:28:00,90.7,65.1,29.80,East,88,3.2,4.6,43,0.00,CLR,,0.00,WeatherDisplay:10.37,2013-08-26 01:28:00,
2013-08-25 20:33:00,90.3,65.4,29.80,ESE,111,3.1,4.6,44,0.00,CLR,,0.00,WeatherDisplay:10.37,2013-08-26 01:33:00,
2013-08-25 20:38:00,90.1,65.9,29.80,ESE,111,3.0,5.8,45,0.00,CLR,,0.00,WeatherDisplay:10.37,2013-08-26 01:38:00,
2013-08-25 20:43:00,90.0,65.8,29.80,ESE,111,2.5,4.6,45,0.00,CLR,,0.00,WeatherDisplay:10.37,2013-08-26 01:43:00,
2013-08-25 20:48:00,89.6,65.4,29.80,East,88,3.2,4.6,45,0.00,CLR,,0.00,WeatherDisplay:10.37,2013-08-26 01:48:00,
2013-08-25 20:53:00,89.6,66.1,29.80,ESE,111,3.2,4.6,46,0.00,CLR,,0.00,WeatherDisplay:10.37,2013-08-26 01:53:00,
2013-08-25 20:58:00,89.2,65.8,29.81,East,88,3.0,5.8,46,0.00,CLR,,0.00,WeatherDisplay:10.37,2013-08-26 01:58:00,
2013-08-25 21:03:00,89.1,66.2,29.81,East,88,2.9,3.5,47,0.00,CLR,,0.00,WeatherDisplay:10.37,2013-08-26 02:03:00,
2013-08-25 21:08:00,88.9,66.0,29.81,East,88,3.8,5.8,47,0.00,CLR,,0.00,WeatherDisplay:10.37,2013-08-26 02:08:00,
2013-08-25 21:13:00,88.5,66.3,29.81,ESE,111,3.2,5.4,48,0.00,CLR,,0.00,WeatherDisplay:10.37,2013-08-26 02:13:00,
2013-08-25 21:18:00,88.2,66.0,29.81,East,88,3.2,4.6,48,0.00,CLR,,0.00,WeatherDisplay:10.37,2013-08-26 02:18:00,
2013-08-25 21:23:00,88.2,66.0,29.82,ESE,111,3.0,4.6,48,0.00,CLR,,0.00,WeatherDisplay:10.37,2013-08-26 02:23:00,
2013-08-25 21:28:00,87.8,65.7,29.82,East,88,3.4,5.8,48,0.00,CLR,,0.00,WeatherDisplay:10.37,2013-08-26 02:28:00,
2013-08-25 21:33:00,87.6,66.1,29.82,East,88,3.8,4.6,49,0.00,CLR,,0.00,WeatherDisplay:10.37,2013-08-26 02:33:00,
2013-08-25 21:38:00,87.3,65.8,29.82,East,88,4.0,5.8,49,0.00,CLR,,0.00,WeatherDisplay:10.37,2013-08-26 02:38:00,
2013-08-25 21:43:00,87.1,66.2,29.83,East,88,3.0,4.3,50,0.00,CLR,,0.00,WeatherDisplay:10.37,2013-08-26 02:43:00,
2013-08-25 21:48:00,87.1,66.2,29.83,East,88,4.2,5.8,50,0.00,CLR,,0.00,WeatherDisplay:10.37,2013-08-26 02:48:00,
2013-08-25 21:53:00,86.7,65.9,29.83,East,88,3.8,4.6,50,0.00,CLR,,0.00,WeatherDisplay:10.37,2013-08-26 02:53:00,
2013-08-25 21:58:00,86.7,65.9,29.83,East,88,3.9,5.8,50,0.00,CLR,,0.00,WeatherDisplay:10.37,2013-08-26 02:58:00,
2013-08-25 22:03:00,86.4,66.1,29.83,ESE,111,4.2,5.8,51,0.00,CLR,,0.00,WeatherDisplay:10.37,2013-08-26 03:03:00,
2013-08-25 22:08:00,86.2,65.9,29.84,East,88,4.9,6.9,51,0.00,CLR,,0.00,WeatherDisplay:10.37,2013-08-26 03:08:00,
2013-08-25 22:13:00,86.0,65.8,29.83,ESE,111,3.1,5.8,51,0.00,CLR,,0.00,WeatherDisplay:10.37,2013-08-26 03:13:00,
2013-08-25 22:18:00,85.8,65.6,29.84,East,88,4.2,5.8,51,0.00,CLR,,0.00,WeatherDisplay:10.37,2013-08-26 03:18:00,
2013-08-25 22:23:00,85.6,65.4,29.84,East,88,3.6,5.4,51,0.00,CLR,,0.00,WeatherDisplay:10.37,2013-08-26 03:23:00,
2013-08-25 22:28:00,85.6,65.4,29.84,SE,133,3.0,4.6,51,0.00,CLR,,0.00,WeatherDisplay:10.37,2013-08-26 03:28:00,
2013-08-25 22:33:00,85.6,65.4,29.84,ESE,111,3.5,5.8,51,0.00,CLR,,0.00,WeatherDisplay:10.37,2013-08-26 03:33:00,
2013-08-25 22:38:00,85.5,65.3,29.84,ESE,111,3.6,5.8,51,0.00,CLR,,0.00,WeatherDisplay:10.37,2013-08-26 03:38:00,
2013-08-25 22:43:00,85.3,65.7,29.84,East,88,3.3,5.4,52,0.00,CLR,,0.00,WeatherDisplay:10.37,2013-08-26 03:43:00,
2013-08-25 22:48:00,85.3,65.7,29.85,East,88,3.1,4.6,52,0.00,CLR,,0.00,WeatherDisplay:10.37,2013-08-26 03:48:00,
2013-08-25 22:53:00,85.1,65.5,29.85,ESE,111,3.4,5.8,52,0.00,CLR,,0.00,WeatherDisplay:10.37,2013-08-26 03:53:00,
2013-08-25 22:58:00,84.9,65.3,29.85,East,88,4.1,5.8,52,0.00,CLR,,0.00,WeatherDisplay:10.37,2013-08-26 03:58:00,
2013-08-25 23:01:00,84.9,65.3,29.85,ESE,111,3.4,5.3,52,0.00,CLR,,0.00,WeatherDisplay:10.37,2013-08-26 04:01:00,
2013-08-25 23:02:00,84.9,65.3,29.85,East,88,3.5,5.8,52,0.00,CLR,,0.00,WeatherDisplay:10.37,2013-08-26 04:02:00,
2013-08-25 23:04:00,84.9,65.3,29.85,East,88,3.3,4.6,52,0.00,CLR,,0.00,WeatherDisplay:10.37,2013-08-26 04:04:00,
2013-08-25 23:09:00,84.7,65.2,29.85,ESE,111,3.3,5.8,52,0.00,CLR,,0.00,WeatherDisplay:10.37,2013-08-26 04:09:00,
2013-08-25 23:14:00,84.7,65.7,29.85,ESE,111,3.8,5.8,53,0.00,CLR,,0.00,WeatherDisplay:10.37,2013-08-26 04:14:00,
2013-08-25 23:19:00,84.6,65.5,29.85,ESE,111,3.7,6.9,53,0.00,CLR,,0.00,WeatherDisplay:10.37,2013-08-26 04:19:00,
2013-08-25 23:24:00,84.4,65.9,29.85,NE,43,3.9,5.8,54,0.00,CLR,,0.00,WeatherDisplay:10.37,2013-08-26 04:24:00,
2013-08-25 23:29:00,84.2,65.8,29.85,East,88,3.9,4.6,54,0.00,CLR,,0.00,WeatherDisplay:10.37,2013-08-26 04:29:00,
2013-08-25 23:34:00,84.0,65.6,29.85,East,88,3.9,5.8,54,0.00,CLR,,0.00,WeatherDisplay:10.37,2013-08-26 04:34:00,
2013-08-25 23:39:00,83.8,64.9,29.85,SE,133,3.0,4.6,53,0.00,CLR,,0.00,WeatherDisplay:10.37,2013-08-26 04:39:00,
2013-08-25 23:44:00,83.7,64.7,29.85,ENE,65,3.3,5.8,53,0.00,CLR,,0.00,WeatherDisplay:10.37,2013-08-26 04:44:00,
2013-08-25 23:49:00,83.5,65.1,29.85,SSE,155,3.2,5.8,54,0.00,CLR,,0.00,WeatherDisplay:10.37,2013-08-26 04:49:00,
2013-08-25 23:54:00,83.5,65.1,29.86,East,88,3.9,5.8,54,0.00,CLR,,0.00,WeatherDisplay:10.37,2013-08-26 04:54:00,
2013-08-25 23:59:00,83.3,64.9,29.85,East,88,3.3,4.6,54,0.00,CLR,,0.00,WeatherDisplay:10.37,2013-08-26 04:59:00,